createdAt,value
2022-08-12T00:02:04.884Z,54.54
2022-08-12T00:04:53.085Z,54.81
2022-08-12T00:07:39.156Z,54.82
2022-08-12T00:10:25.180Z,55.02
2022-08-12T00:13:12.534Z,55.16
2022-08-12T00:16:01.766Z,55.14
2022-08-12T00:18:47.649Z,55.30
2022-08-12T00:21:36.398Z,55.13
2022-08-12T00:24:23.824Z,55.26
2022-08-12T00:27:09.639Z,55.20
2022-08-12T00:29:55.351Z,55.42
2022-08-12T00:32:41.429Z,55.33
2022-08-12T00:35:40.658Z,55.41
2022-08-12T00:38:25.882Z,55.55
2022-08-12T00:41:12.604Z,55.51
2022-08-12T00:43:43.033Z,55.75
2022-08-12T00:46:28.312Z,55.59
2022-08-12T00:48:56.962Z,55.79
2022-08-12T00:51:44.716Z,56.10
2022-08-12T00:54:11.369Z,56.05
2022-08-12T00:56:39.557Z,56.17
2022-08-12T00:59:06.796Z,56.54
2022-08-12T01:02:10.739Z,56.79
2022-08-12T01:04:43.585Z,57.16
2022-08-12T01:07:31.407Z,57.24
2022-08-12T01:10:16.791Z,57.43
2022-08-12T01:12:43.891Z,57.39
2022-08-12T01:15:13.363Z,57.62
2022-08-12T01:17:44.853Z,57.75
2022-08-12T01:20:26.502Z,57.96
2022-08-12T01:23:18.605Z,57.75
2022-08-12T01:25:56.287Z,57.78
2022-08-12T01:28:27.700Z,57.67
2022-08-12T01:30:54.705Z,57.95
2022-08-12T01:33:22.283Z,57.96
2022-08-12T01:35:57.928Z,58.04
2022-08-12T01:38:37.212Z,57.75
2022-08-12T01:41:05.534Z,58.11
2022-08-12T01:43:34.244Z,58.24
2022-08-12T01:46:25.375Z,58.22
2022-08-12T01:49:21.729Z,58.32
2022-08-12T01:52:21.217Z,58.59
2022-08-12T01:54:49.425Z,58.79
2022-08-12T01:57:58.462Z,58.91
2022-08-12T02:00:19.107Z,59.01
2022-08-12T02:03:09.186Z,59.09
2022-08-12T02:06:21.806Z,58.99
2022-08-12T02:09:07.001Z,59.28
2022-08-12T02:11:40.008Z,59.60
2022-08-12T02:14:28.666Z,59.82
2022-08-12T02:17:05.466Z,60.00
2022-08-12T02:19:54.589Z,60.15
2022-08-12T02:22:31.220Z,60.47
2022-08-12T02:25:19.268Z,60.46
2022-08-12T02:27:49.505Z,60.31
2022-08-12T02:30:25.068Z,60.20
2022-08-12T02:32:53.815Z,60.23
2022-08-12T02:35:25.267Z,60.19
2022-08-12T02:37:56.098Z,60.32
2022-08-12T02:40:24.952Z,60.48
2022-08-12T02:43:12.277Z,60.51
2022-08-12T02:45:55.206Z,60.43
2022-08-12T02:48:51.831Z,60.61
2022-08-12T02:51:40.192Z,60.77
2022-08-12T02:54:07.524Z,61.16
2022-08-12T02:56:38.003Z,61.23
2022-08-12T02:59:06.820Z,61.52
2022-08-12T03:01:34.938Z,61.96
2022-08-12T03:04:05.311Z,62.10
2022-08-12T03:06:43.768Z,62.22
2022-08-12T03:09:16.743Z,62.13
2022-08-12T03:12:05.181Z,62.21
2022-08-12T03:14:35.112Z,62.29
2022-08-12T03:17:26.077Z,62.33
2022-08-12T03:20:09.527Z,62.28
2022-08-12T03:22:42.333Z,62.41
2022-08-12T03:25:17.662Z,62.34
2022-08-12T03:27:49.931Z,62.31
2022-08-12T03:30:18.417Z,62.04
2022-08-12T03:32:50.760Z,62.32
2022-08-12T03:35:40.384Z,62.35
2022-08-12T03:38:12.301Z,62.58
2022-08-12T03:41:15.601Z,62.59
2022-08-12T03:44:10.782Z,62.58
2022-08-12T03:47:00.504Z,62.85
2022-08-12T03:49:46.068Z,62.78
2022-08-12T03:52:31.441Z,62.99
2022-08-12T03:55:16.853Z,63.21
2022-08-12T03:58:01.996Z,63.36
2022-08-12T04:00:30.891Z,63.55
2022-08-12T04:03:03.598Z,63.52
2022-08-12T04:05:54.296Z,63.41
2022-08-12T04:08:21.288Z,63.20
2022-08-12T04:11:06.711Z,63.05
2022-08-12T04:13:33.407Z,62.98
2022-08-12T04:16:02.767Z,62.82
2022-08-12T04:18:29.957Z,62.98
2022-08-12T04:20:57.428Z,62.89
2022-08-12T04:23:25.778Z,62.91
2022-08-12T04:25:52.410Z,62.78
2022-08-12T04:28:27.910Z,62.92
2022-08-12T04:30:56.651Z,62.81
2022-08-12T04:33:23.964Z,62.88
2022-08-12T04:35:50.687Z,62.78
2022-08-12T04:38:18.926Z,62.86
2022-08-12T04:40:46.376Z,62.89
2022-08-12T04:44:00.078Z,62.92
2022-08-12T04:45:59.834Z,62.96
2022-08-12T04:48:26.365Z,62.69
2022-08-12T04:50:54.900Z,62.83
2022-08-12T04:53:21.702Z,62.75
2022-08-12T04:55:48.895Z,62.88
2022-08-12T04:58:15.451Z,62.75
2022-08-12T05:00:56.497Z,62.79
2022-08-12T05:03:27.853Z,62.79
2022-08-12T05:05:57.730Z,62.65
2022-08-12T05:08:26.837Z,62.70
2022-08-12T05:10:54.655Z,62.68
2022-08-12T05:13:27.294Z,62.43
2022-08-12T05:16:04.619Z,62.45
2022-08-12T05:18:39.150Z,62.39
2022-08-12T05:21:10.087Z,62.38
2022-08-12T05:23:38.139Z,62.16
2022-08-12T05:26:04.967Z,62.22
2022-08-12T05:28:32.394Z,62.13
2022-08-12T05:31:01.811Z,62.06
2022-08-12T05:33:33.587Z,62.01
2022-08-12T05:36:00.150Z,61.91
2022-08-12T05:38:45.575Z,61.91
2022-08-12T05:41:20.924Z,62.01
2022-08-12T05:43:53.686Z,61.95
2022-08-12T05:46:21.821Z,61.98
2022-08-12T05:48:49.781Z,61.96
2022-08-12T05:51:16.858Z,62.17
2022-08-12T05:53:43.590Z,61.96
2022-08-12T05:56:21.365Z,61.90
2022-08-12T05:58:51.262Z,61.69
2022-08-12T06:02:09.349Z,61.59
2022-08-12T06:04:05.611Z,61.46
2022-08-12T06:06:39.788Z,61.34
2022-08-12T06:09:06.415Z,61.42
2022-08-12T06:11:32.965Z,61.41
2022-08-12T06:13:59.572Z,61.32
2022-08-12T06:16:27.181Z,61.01
2022-08-12T06:18:54.656Z,61.03
2022-08-12T06:21:23.329Z,60.89
2022-08-12T06:23:52.869Z,60.99
2022-08-12T06:26:20.654Z,60.71
2022-08-12T06:28:50.956Z,60.56
2022-08-12T06:31:27.413Z,60.54
2022-08-12T06:34:00.465Z,60.44
2022-08-12T06:36:42.872Z,60.41
2022-08-12T06:39:15.142Z,60.29
2022-08-12T06:42:32.356Z,60.17
2022-08-12T06:44:50.489Z,59.98
2022-08-12T06:47:19.499Z,59.97
2022-08-12T06:49:46.225Z,59.97
2022-08-12T06:52:12.780Z,59.65
2022-08-12T06:54:41.434Z,59.99
2022-08-12T06:57:58.104Z,59.97
2022-08-12T06:59:54.761Z,59.97
2022-08-12T07:02:22.725Z,59.78
2022-08-12T07:04:49.996Z,59.77
2022-08-12T07:07:16.668Z,59.48
2022-08-12T07:10:01.581Z,59.45
2022-08-12T07:12:30.854Z,59.39
2022-08-12T07:14:59.172Z,59.49
2022-08-12T07:17:36.243Z,59.05
2022-08-12T07:20:20.143Z,59.28
2022-08-12T07:23:00.279Z,59.05
2022-08-12T07:25:40.322Z,59.10
2022-08-12T07:28:17.619Z,58.93
2022-08-12T07:30:46.853Z,58.55
2022-08-12T07:33:16.795Z,58.35
2022-08-12T07:35:51.079Z,58.26
2022-08-12T07:38:36.309Z,57.87
2022-08-12T07:41:15.646Z,58.04
2022-08-12T07:43:45.888Z,58.19
2022-08-12T07:46:15.341Z,58.60
2022-08-12T07:48:48.989Z,58.99
2022-08-12T07:51:24.898Z,59.85
2022-08-12T07:54:01.183Z,60.50
2022-08-12T07:56:33.699Z,59.82
2022-08-12T07:59:01.088Z,59.25
2022-08-12T08:01:28.316Z,58.84
2022-08-12T08:04:18.820Z,58.09
2022-08-12T08:06:47.356Z,58.11
2022-08-12T08:09:16.773Z,56.93
2022-08-12T08:12:01.868Z,56.54
2022-08-12T08:14:32.506Z,56.05
2022-08-12T08:17:00.877Z,56.27
2022-08-12T08:19:29.265Z,56.08
2022-08-12T08:21:57.360Z,55.72
2022-08-12T08:24:27.114Z,55.88
2022-08-12T08:26:56.830Z,55.54
2022-08-12T08:29:24.417Z,55.43
2022-08-12T08:31:54.682Z,55.46
2022-08-12T08:34:47.529Z,55.61
2022-08-12T08:37:10.711Z,55.34
2022-08-12T08:39:42.471Z,55.18
2022-08-12T08:42:27.510Z,55.29
2022-08-12T08:44:57.909Z,55.55
2022-08-12T08:47:25.550Z,54.90
2022-08-12T08:49:52.406Z,54.90
2022-08-12T08:52:39.814Z,54.74
2022-08-12T08:55:09.774Z,54.73
2022-08-12T08:57:42.963Z,54.65
2022-08-12T09:00:23.315Z,54.64
2022-08-12T09:02:59.225Z,54.57
2022-08-12T09:05:27.722Z,54.39
2022-08-12T09:08:08.860Z,54.13
2022-08-12T09:16:14.661Z,54.21
2022-08-12T09:18:43.559Z,54.30
2022-08-12T09:21:11.221Z,54.28
2022-08-12T09:24:00.012Z,53.97
2022-08-12T09:26:28.909Z,54.00
2022-08-12T09:28:57.069Z,53.85
2022-08-12T09:32:07.856Z,53.75
2022-08-12T09:34:29.426Z,53.23
2022-08-12T09:37:01.544Z,52.92
2022-08-12T09:40:05.967Z,52.75
2022-08-12T09:42:43.979Z,52.84
2022-08-12T09:45:23.128Z,52.65
2022-08-12T09:47:57.050Z,52.31
2022-08-12T09:50:27.156Z,52.34
2022-08-12T09:53:15.013Z,52.74
2022-08-12T09:56:05.727Z,52.78
2022-08-12T09:58:59.156Z,52.23
2022-08-12T10:01:23.281Z,51.94
2022-08-12T10:04:04.230Z,51.85
2022-08-12T10:06:36.190Z,51.57
2022-08-12T10:09:08.143Z,51.29
2022-08-12T10:12:11.641Z,51.52
2022-08-12T10:14:39.944Z,51.21
2022-08-12T10:17:20.453Z,50.78
2022-08-12T10:19:51.801Z,51.21
2022-08-12T10:22:40.522Z,51.04
2022-08-12T10:26:35.332Z,50.84
2022-08-12T10:28:31.410Z,50.23
2022-08-12T10:30:59.579Z,50.26
2022-08-12T10:33:30.965Z,50.51
2022-08-12T10:36:00.433Z,50.56
2022-08-12T10:38:38.444Z,50.31
2022-08-12T10:41:57.812Z,50.39
2022-08-12T10:44:17.257Z,50.41
2022-08-12T10:46:49.400Z,49.33
2022-08-12T10:50:04.822Z,49.51
2022-08-12T10:52:32.793Z,49.32
2022-08-12T10:54:51.694Z,49.02
2022-08-12T10:58:12.783Z,49.18
2022-08-12T11:00:31.354Z,49.13
2022-08-12T11:04:27.906Z,48.71
2022-08-12T11:07:03.760Z,48.49
2022-08-12T11:08:42.340Z,47.61
2022-08-12T11:11:27.654Z,47.65
2022-08-12T11:14:04.575Z,47.64
2022-08-12T11:16:32.831Z,47.56
2022-08-12T11:18:59.444Z,47.64
2022-08-12T11:21:56.262Z,47.51
2022-08-12T11:24:30.675Z,47.30
2022-08-12T11:27:01.203Z,47.22
2022-08-12T11:30:00.455Z,47.04
2022-08-12T11:32:15.666Z,46.89
2022-08-12T11:34:51.639Z,46.88
2022-08-12T11:37:25.351Z,46.75
2022-08-12T11:42:37.388Z,46.76
2022-08-12T11:45:10.444Z,46.51
2022-08-12T11:47:40.372Z,46.13
2022-08-12T11:50:08.021Z,45.90
2022-08-12T11:52:56.771Z,45.90
2022-08-12T11:55:25.427Z,45.57
2022-08-12T11:58:49.428Z,45.46
2022-08-12T12:03:43.727Z,45.75
2022-08-12T12:06:14.152Z,45.72
2022-08-12T12:08:49.747Z,45.76
2022-08-12T12:11:18.386Z,44.96
2022-08-12T12:14:06.621Z,44.66
2022-08-12T12:16:33.326Z,44.51
2022-08-12T12:19:00.604Z,44.88
2022-08-12T12:21:48.145Z,44.50
2022-08-12T12:24:21.090Z,44.58
2022-08-12T12:27:01.000Z,44.18
2022-08-12T12:30:19.046Z,44.37
2022-08-12T12:32:18.329Z,43.59
2022-08-12T12:35:17.840Z,43.58
2022-08-12T12:38:04.554Z,43.55
2022-08-12T12:40:18.594Z,43.29
2022-08-12T12:42:56.830Z,42.82
2022-08-12T12:45:32.459Z,42.91
2022-08-12T12:48:04.909Z,43.30
2022-08-12T12:50:42.815Z,43.14
2022-08-12T12:54:05.742Z,42.60
2022-08-12T12:56:15.481Z,42.57
2022-08-12T12:58:43.556Z,42.45
2022-08-12T13:01:26.734Z,41.78
2022-08-12T13:04:02.155Z,41.88
2022-08-12T13:06:30.738Z,41.38
2022-08-12T13:09:03.114Z,41.24
2022-08-12T13:11:41.572Z,41.71
2022-08-12T13:14:28.736Z,41.00
2022-08-12T13:17:02.766Z,41.06
2022-08-12T13:19:37.760Z,41.14
2022-08-12T13:22:29.177Z,40.89
2022-08-12T13:24:59.741Z,41.39
2022-08-12T13:27:36.350Z,41.83
2022-08-12T13:30:12.113Z,41.61
2022-08-12T13:32:40.522Z,41.03
2022-08-12T13:35:19.429Z,40.65
2022-08-12T13:37:56.447Z,40.48
2022-08-12T13:40:24.810Z,40.84
2022-08-12T13:42:55.918Z,40.56
2022-08-12T13:45:22.794Z,40.56
2022-08-12T13:47:58.238Z,40.21
2022-08-12T13:50:33.982Z,39.90
2022-08-12T13:53:23.239Z,39.82
2022-08-12T13:55:59.803Z,39.73
2022-08-12T13:58:30.692Z,38.98
2022-08-12T14:00:58.457Z,38.97
2022-08-12T14:03:28.353Z,38.46
2022-08-12T14:05:59.502Z,38.32
2022-08-12T14:08:34.449Z,38.23
2022-08-12T14:11:02.394Z,37.82
2022-08-12T14:14:04.741Z,37.99
2022-08-12T14:16:37.821Z,35.80
2022-08-12T14:19:10.642Z,35.19
2022-08-12T14:22:00.755Z,34.37
2022-08-12T14:24:35.824Z,33.79
2022-08-12T14:27:09.057Z,32.92
2022-08-12T14:29:55.758Z,32.85
2022-08-12T14:32:24.119Z,32.13
2022-08-12T14:34:51.761Z,32.11
2022-08-12T14:37:56.106Z,32.21
2022-08-12T14:40:06.666Z,31.60
2022-08-12T14:42:33.310Z,31.34
2022-08-12T14:45:01.512Z,31.24
2022-08-12T14:47:35.136Z,31.27
2022-08-12T14:50:58.594Z,31.02
2022-08-12T14:56:59.862Z,30.40
2022-08-12T14:58:31.869Z,29.98
2022-08-12T15:01:21.187Z,30.32
2022-08-12T15:03:57.905Z,29.71
2022-08-12T15:06:43.527Z,29.65
2022-08-12T15:09:16.172Z,30.13
2022-08-12T15:11:54.776Z,30.35
2022-08-12T15:14:27.642Z,30.09
2022-08-12T15:16:57.269Z,29.89
2022-08-12T15:20:12.083Z,29.66
2022-08-12T15:22:37.519Z,30.15
2022-08-12T15:25:07.120Z,30.15
2022-08-12T15:28:03.815Z,30.34
2022-08-12T15:30:24.799Z,30.83
2022-08-12T15:32:53.570Z,31.10
2022-08-12T15:35:31.361Z,30.86
2022-08-12T15:38:15.944Z,30.59
2022-08-12T15:40:48.434Z,30.93
2022-08-12T15:43:35.402Z,31.28
2022-08-12T15:46:06.274Z,33.44
2022-08-12T15:48:34.182Z,34.35
2022-08-12T15:51:02.234Z,36.06
2022-08-12T15:53:51.249Z,36.94
2022-08-12T15:56:29.458Z,37.27
2022-08-12T15:58:59.231Z,38.24
2022-08-12T16:01:35.125Z,38.55
2022-08-12T16:04:02.913Z,38.97
2022-08-12T16:07:03.549Z,39.49
2022-08-12T16:09:21.605Z,39.37
2022-08-12T16:11:59.229Z,40.39
2022-08-12T16:14:28.686Z,40.48
2022-08-12T16:16:55.454Z,40.93
2022-08-12T16:20:03.686Z,41.21
2022-08-12T16:22:11.408Z,41.17
2022-08-12T16:24:42.475Z,40.96
2022-08-12T16:27:09.990Z,40.79
2022-08-12T16:29:53.125Z,41.20
2022-08-12T16:32:24.155Z,41.46
2022-08-12T16:34:55.878Z,41.39
2022-08-12T16:37:32.364Z,41.24
2022-08-12T16:40:12.283Z,41.25
2022-08-12T16:42:53.777Z,41.34
2022-08-12T16:46:04.248Z,40.91
2022-08-12T16:48:34.109Z,41.12
2022-08-12T16:51:12.392Z,41.19
2022-08-12T16:53:45.106Z,41.47
2022-08-12T16:56:17.387Z,41.88
2022-08-12T16:58:45.119Z,42.14
2022-08-12T17:01:16.523Z,42.15
2022-08-12T17:03:58.913Z,42.40
2022-08-12T17:06:28.232Z,42.68
2022-08-12T17:09:08.730Z,42.92
2022-08-12T17:11:48.942Z,43.50
2022-08-12T17:14:16.849Z,44.29
2022-08-12T17:16:45.604Z,44.76
2022-08-12T17:19:19.580Z,44.74
2022-08-12T17:22:01.217Z,45.47
2022-08-12T17:24:32.584Z,46.12
2022-08-12T17:27:16.475Z,46.53
2022-08-12T17:30:02.257Z,46.89
2022-08-12T17:32:33.910Z,47.45
2022-08-12T17:35:20.342Z,47.39
2022-08-12T17:37:48.768Z,47.63
2022-08-12T17:40:34.627Z,47.86
2022-08-12T17:43:51.736Z,48.32
2022-08-12T17:45:56.182Z,48.86
2022-08-12T17:48:34.106Z,48.84
2022-08-12T17:51:15.448Z,49.44
2022-08-12T17:54:10.565Z,49.42
2022-08-12T17:56:31.948Z,49.73
2022-08-12T17:59:00.436Z,49.93
2022-08-12T18:01:29.098Z,50.46
2022-08-12T18:04:20.590Z,50.42
2022-08-12T18:06:50.477Z,50.50
2022-08-12T18:09:18.407Z,50.30
2022-08-12T18:12:08.242Z,50.04
2022-08-12T18:14:36.965Z,49.88
2022-08-12T18:17:08.127Z,49.77
2022-08-12T18:20:06.007Z,49.91
2022-08-12T18:22:31.016Z,50.19
2022-08-12T18:25:05.290Z,50.19
2022-08-12T18:27:42.107Z,50.63
2022-08-12T18:30:13.368Z,51.19
2022-08-12T18:32:59.022Z,51.62
2022-08-12T18:35:47.365Z,51.49
2022-08-12T18:38:17.242Z,51.79
2022-08-12T18:41:06.937Z,52.24
2022-08-12T18:43:39.119Z,52.48
2022-08-12T18:46:32.215Z,52.76
2022-08-12T18:49:16.829Z,53.31
2022-08-12T18:51:54.867Z,53.36
2022-08-12T18:54:32.371Z,53.63
2022-08-12T18:57:04.672Z,53.84
2022-08-12T19:00:00.347Z,54.19
2022-08-12T19:02:22.441Z,54.10
2022-08-12T19:04:53.282Z,54.34
2022-08-12T19:07:29.895Z,54.60
2022-08-12T19:10:15.751Z,55.03
2022-08-12T19:13:08.179Z,55.32
2022-08-12T19:15:37.347Z,55.58
2022-08-12T19:18:10.136Z,55.54
2022-08-12T19:20:39.311Z,55.76
2022-08-12T19:23:07.897Z,56.04
2022-08-12T19:26:00.635Z,56.64
2022-08-12T19:28:34.733Z,56.77
2022-08-12T19:31:56.252Z,56.89
2022-08-12T19:37:38.626Z,57.01
2022-08-12T19:40:20.572Z,57.41
2022-08-12T19:43:13.485Z,57.70
2022-08-12T19:45:51.522Z,57.89
2022-08-12T19:48:20.667Z,58.14
2022-08-12T19:50:52.622Z,58.17
2022-08-12T19:53:24.174Z,58.71
2022-08-12T19:55:53.372Z,58.89
2022-08-12T19:58:22.362Z,58.60
2022-08-12T20:00:53.379Z,58.71
2022-08-12T20:03:37.937Z,58.75
2022-08-12T20:06:15.277Z,58.76
2022-08-12T20:08:47.735Z,59.08
2022-08-12T20:12:14.635Z,59.13
2022-08-12T20:14:06.851Z,59.24
2022-08-12T20:16:57.152Z,59.17
2022-08-12T20:19:52.250Z,59.47
2022-08-12T20:22:24.352Z,59.74
2022-08-12T20:25:07.133Z,59.64
2022-08-12T20:28:02.600Z,59.87
2022-08-12T20:30:52.937Z,59.94
2022-08-12T20:33:18.688Z,60.07
2022-08-12T20:36:07.005Z,60.08
2022-08-12T20:38:40.169Z,60.09
2022-08-12T20:41:16.600Z,60.44
2022-08-12T20:43:45.774Z,60.46
2022-08-12T20:46:13.363Z,60.33
2022-08-12T20:48:43.631Z,60.96
2022-08-12T20:51:15.924Z,61.23
2022-08-12T20:53:54.206Z,61.05
2022-08-12T20:56:36.974Z,61.06
2022-08-12T20:59:20.388Z,61.03
2022-08-12T21:01:48.902Z,60.89
2022-08-12T21:04:37.220Z,60.97
2022-08-12T21:07:09.606Z,60.96
2022-08-12T21:09:48.606Z,61.27
2022-08-12T21:12:28.650Z,61.14
2022-08-12T21:15:23.944Z,61.19
2022-08-12T21:18:12.017Z,61.30
2022-08-12T21:20:52.731Z,61.53
2022-08-12T21:23:21.667Z,61.52
2022-08-12T21:25:50.956Z,61.51
2022-08-12T21:28:20.788Z,62.10
2022-08-12T21:31:11.360Z,62.01
2022-08-12T21:33:45.881Z,62.05
2022-08-12T21:36:34.853Z,62.45
2022-08-12T21:39:18.504Z,62.34
2022-08-12T21:41:52.230Z,62.84
2022-08-12T21:44:24.305Z,62.93
2022-08-12T21:47:18.271Z,63.17
2022-08-12T21:49:55.581Z,63.28
2022-08-12T21:52:34.698Z,63.53
2022-08-12T21:55:04.168Z,63.58
2022-08-12T21:57:48.225Z,63.92
2022-08-12T22:00:19.181Z,63.92
2022-08-12T22:03:04.421Z,64.41
2022-08-12T22:05:49.675Z,64.13
2022-08-12T22:08:22.122Z,64.53
2022-08-12T22:10:52.163Z,64.73
2022-08-12T22:14:06.907Z,64.97
2022-08-12T22:16:06.983Z,64.98
2022-08-12T22:18:33.544Z,65.10
2022-08-12T22:21:00.314Z,65.44
2022-08-12T22:23:28.524Z,65.61
2022-08-12T22:26:15.964Z,65.79
2022-08-12T22:29:14.214Z,65.96
2022-08-12T22:31:44.022Z,65.96
2022-08-12T22:34:18.068Z,65.91
2022-08-12T22:36:45.779Z,66.04
2022-08-12T22:39:15.729Z,66.07
2022-08-12T22:42:02.111Z,66.10
2022-08-12T22:44:54.820Z,65.98
2022-08-12T22:47:54.123Z,66.11
2022-08-12T22:50:29.467Z,66.44
2022-08-12T22:53:15.587Z,66.51
2022-08-12T22:55:59.859Z,66.70
2022-08-12T22:58:34.074Z,66.88
2022-08-12T23:01:01.945Z,67.04
2022-08-12T23:03:49.191Z,67.01
2022-08-12T23:06:17.301Z,67.02
2022-08-12T23:08:46.168Z,67.48
2022-08-12T23:11:12.953Z,67.52
2022-08-12T23:13:45.904Z,67.64
2022-08-12T23:16:18.269Z,67.64
2022-08-12T23:19:01.703Z,67.47
2022-08-12T23:22:05.793Z,67.89
2022-08-12T23:24:38.560Z,67.76
2022-08-12T23:27:24.898Z,67.95
2022-08-12T23:30:19.183Z,67.82
2022-08-12T23:32:54.691Z,68.18
2022-08-12T23:35:45.505Z,68.27
2022-08-12T23:38:31.082Z,68.13
2022-08-12T23:41:00.656Z,68.12
2022-08-12T23:43:40.102Z,68.30
2022-08-12T23:46:18.585Z,68.39
2022-08-12T23:48:48.168Z,68.47
2022-08-12T23:51:26.806Z,68.74
2022-08-12T23:54:02.977Z,68.60
2022-08-12T23:56:34.948Z,68.72
2022-08-12T23:59:06.267Z,68.95
